Schedule Details

Flight Number: ASX104
Departure: Warszawa Chopina (EPWA) at 07:00Z
Arrival: London-Stansted (EGSS) at 09:30Z
Route: LOLSI T174 INDIG L980 SUI UL980 HLZ DCT GORLO M20 IDESI

Weather Information
EPWA 120530Z 17012KT CAVOK 07/04 Q0994 NOSIG
EGSS 120550Z AUTO 27004KT 9999 NCD M02/M04 Q1004

Schedule Frequency

Route Map